createdAt,value
2023-01-03T00:01:52.347Z,100152.41
2023-01-03T00:04:21.589Z,100152.88
2023-01-03T00:06:54.541Z,100160.44
2023-01-03T00:09:24.966Z,100158.56
2023-01-03T00:12:13.475Z,100161.81
2023-01-03T00:14:44.016Z,100167.38
2023-01-03T00:17:13.976Z,100158.72
2023-01-03T00:19:44.816Z,100161.97
2023-01-03T00:22:14.869Z,100155.31
2023-01-03T00:24:44.855Z,100170.91
2023-01-03T00:27:14.700Z,100168.59
2023-01-03T00:29:44.083Z,100169.06
2023-01-03T00:32:13.049Z,100173.50
2023-01-03T00:34:41.960Z,100186.63
2023-01-03T00:37:10.243Z,100183.53
2023-01-03T00:39:38.563Z,100186.78
2023-01-03T00:42:07.173Z,100193.09
2023-01-03T00:44:35.596Z,100197.44
2023-01-03T00:47:03.958Z,100202.69
2023-01-03T00:49:32.318Z,100209.78
2023-01-03T00:52:00.639Z,100213.34
2023-01-03T00:54:29.160Z,100216.13
2023-01-03T00:56:57.570Z,100211.34
2023-01-03T00:59:25.871Z,100217.22
2023-01-03T01:01:56.348Z,100217.91
2023-01-03T01:04:32.887Z,100215.75
2023-01-03T01:07:05.274Z,100226.28
2023-01-03T01:09:36.738Z,100226.91
2023-01-03T01:12:07.812Z,100221.50
2023-01-03T01:14:36.786Z,100234.50
2023-01-03T01:17:07.531Z,100231.25
2023-01-03T01:19:39.483Z,100233.78
2023-01-03T01:22:08.805Z,100231.63
2023-01-03T01:24:38.270Z,100232.16
2023-01-03T01:27:06.856Z,100235.41
2023-01-03T01:29:35.890Z,100230.81
2023-01-03T01:32:04.423Z,100232.06
2023-01-03T01:34:32.868Z,100233.00
2023-01-03T01:37:01.561Z,100235.47
2023-01-03T01:39:30.723Z,100236.44
2023-01-03T01:42:20.891Z,100228.22
2023-01-03T01:44:55.970Z,100227.63
2023-01-03T01:47:30.088Z,100232.09
2023-01-03T01:50:08.273Z,100233.69
2023-01-03T01:52:41.992Z,100232.13
2023-01-03T01:55:15.098Z,100249.78
2023-01-03T01:57:45.343Z,100238.78
2023-01-03T02:00:14.472Z,100241.75
2023-01-03T02:02:45.134Z,100248.25
2023-01-03T02:05:14.624Z,100239.56
2023-01-03T02:07:43.548Z,100254.59
2023-01-03T02:10:12.090Z,100251.34
2023-01-03T02:13:07.237Z,100248.38
2023-01-03T02:16:17.022Z,100244.97
2023-01-03T02:19:12.605Z,100246.22
2023-01-03T02:21:52.777Z,100247.59
2023-01-03T02:24:43.669Z,100239.34
2023-01-03T02:27:54.129Z,100243.06
2023-01-03T02:30:34.410Z,100251.13
2023-01-03T02:33:12.614Z,100250.78
2023-01-03T02:35:43.861Z,100250.94
2023-01-03T02:38:28.464Z,100247.34
2023-01-03T02:41:20.346Z,100246.56
2023-01-03T02:44:06.306Z,100244.19
2023-01-03T02:46:40.758Z,100247.69
2023-01-03T02:49:37.062Z,100240.53
2023-01-03T02:52:22.968Z,100239.72
2023-01-03T02:55:06.354Z,100241.19
2023-01-03T02:57:48.402Z,100228.16
2023-01-03T03:00:21.722Z,100229.81
2023-01-03T03:02:55.505Z,100237.72
2023-01-03T03:05:33.621Z,100229.47
2023-01-03T03:08:01.937Z,100237.38
2023-01-03T03:10:49.949Z,100237.19
2023-01-03T03:13:24.713Z,100245.19
2023-01-03T03:16:41.743Z,100240.34
2023-01-03T03:19:48.082Z,100239.66
2023-01-03T03:22:56.641Z,100236.97
2023-01-03T03:25:33.296Z,100235.81
2023-01-03T03:28:25.008Z,100228.81
2023-01-03T03:30:57.866Z,100226.13
2023-01-03T03:33:30.173Z,100218.91
2023-01-03T03:36:07.132Z,100225.22
2023-01-03T03:38:43.252Z,100225.31
2023-01-03T03:41:53.149Z,100209.78
2023-01-03T03:44:42.295Z,100218.75
2023-01-03T03:47:25.254Z,100212.97
2023-01-03T03:49:58.036Z,100217.09
2023-01-03T03:52:33.036Z,100208.03
2023-01-03T03:55:10.034Z,100200.22
2023-01-03T03:57:51.660Z,100200.03
2023-01-03T04:00:26.522Z,100190.66
2023-01-03T04:02:57.390Z,100185.72
2023-01-03T04:05:28.551Z,100184.25
2023-01-03T04:07:56.948Z,100175.19
2023-01-03T04:10:26.131Z,100176.53
2023-01-03T04:12:55.535Z,100161.56
2023-01-03T04:15:23.861Z,100163.47
2023-01-03T04:17:53.398Z,100156.09
2023-01-03T04:20:22.577Z,100150.31
2023-01-03T04:22:50.905Z,100146.56
2023-01-03T04:25:19.262Z,100146.94
2023-01-03T04:27:47.555Z,100133.00
2023-01-03T04:30:16.228Z,100129.19
2023-01-03T04:32:44.839Z,100137.94
2023-01-03T04:35:13.198Z,100120.94
2023-01-03T04:37:41.724Z,100121.78
2023-01-03T04:40:10.673Z,100120.31
2023-01-03T04:42:57.386Z,100119.59
2023-01-03T04:45:25.727Z,100103.59
2023-01-03T04:47:55.148Z,100096.78
2023-01-03T04:50:23.440Z,100102.47
2023-01-03T04:52:51.766Z,100090.75
2023-01-03T04:55:20.155Z,100084.19
2023-01-03T04:57:48.477Z,100085.25
2023-01-03T05:00:17.078Z,100070.22
2023-01-03T05:02:47.234Z,100067.97
2023-01-03T05:05:15.902Z,100065.22
2023-01-03T05:07:44.210Z,100058.09
2023-01-03T05:10:12.499Z,100048.50
2023-01-03T05:12:40.802Z,100041.38
2023-01-03T05:15:10.217Z,100036.31
2023-01-03T05:17:38.490Z,100022.06
2023-01-03T05:20:25.657Z,100023.34
2023-01-03T05:23:12.262Z,100020.88
2023-01-03T05:25:52.726Z,100010.72
2023-01-03T05:28:23.578Z,100013.63
2023-01-03T05:30:51.885Z,100004.25
2023-01-03T05:33:20.183Z,100000.22
2023-01-03T05:35:49.164Z,99997.69
2023-01-03T05:38:17.512Z,99987.03
2023-01-03T05:40:45.817Z,99986.78
2023-01-03T05:43:14.174Z,99981.94
2023-01-03T05:45:42.894Z,99976.34
2023-01-03T05:48:11.420Z,99969.50
2023-01-03T05:50:39.772Z,99964.66
2023-01-03T05:53:08.161Z,99964.16
2023-01-03T05:55:40.496Z,99951.91
2023-01-03T05:58:09.440Z,99941.47
2023-01-03T06:00:37.788Z,99947.09
2023-01-03T06:03:06.233Z,99934.56
2023-01-03T06:05:34.692Z,99933.53
2023-01-03T06:08:03.628Z,99925.38
2023-01-03T06:10:31.987Z,99909.75
2023-01-03T06:13:00.511Z,99913.09
2023-01-03T06:15:28.833Z,99909.00
2023-01-03T06:17:58.728Z,99896.22
2023-01-03T06:20:30.949Z,99892.63
2023-01-03T06:22:59.385Z,99889.56
2023-01-03T06:25:27.928Z,99883.19
2023-01-03T06:27:56.867Z,99881.38
2023-01-03T06:30:25.264Z,99875.50
2023-01-03T06:32:53.638Z,99871.16
2023-01-03T06:35:21.933Z,99861.94
2023-01-03T06:37:50.231Z,99855.00
2023-01-03T06:40:20.270Z,99848.59
2023-01-03T06:42:48.647Z,99843.69
2023-01-03T06:45:35.320Z,99839.59
2023-01-03T06:48:25.833Z,99824.97
2023-01-03T06:51:12.980Z,99813.69
2023-01-03T06:53:44.050Z,99806.00
2023-01-03T06:56:12.699Z,99800.38
2023-01-03T06:58:41.020Z,99803.19
2023-01-03T07:01:09.455Z,99797.56
2023-01-03T07:03:38.206Z,99799.63
2023-01-03T07:06:08.220Z,99794.00
2023-01-03T07:08:37.788Z,99789.38
2023-01-03T07:11:08.463Z,99783.75
2023-01-03T07:13:55.207Z,99787.31
2023-01-03T07:16:23.761Z,99779.13
2023-01-03T07:18:55.425Z,99774.75
2023-01-03T07:21:29.358Z,99772.22
2023-01-03T07:23:59.257Z,99772.69
2023-01-03T07:26:27.623Z,99767.78
2023-01-03T07:28:55.925Z,99765.94
2023-01-03T07:31:24.889Z,99758.22
2023-01-03T07:33:54.221Z,99757.94
2023-01-03T07:36:23.094Z,99746.16
2023-01-03T07:38:51.435Z,99750.50
2023-01-03T07:41:19.815Z,99744.88
2023-01-03T07:43:50.600Z,99738.47
2023-01-03T07:46:24.139Z,99747.16
2023-01-03T07:48:54.815Z,99739.72
2023-01-03T07:51:24.006Z,99746.88
2023-01-03T07:53:54.062Z,99734.31
2023-01-03T07:56:26.062Z,99733.25
2023-01-03T07:58:54.582Z,99726.63
2023-01-03T08:01:25.358Z,99733.03
2023-01-03T08:03:54.021Z,99727.91
2023-01-03T08:06:24.747Z,99730.50
2023-01-03T08:09:12.622Z,99725.38
2023-01-03T08:11:59.683Z,99726.69
2023-01-03T08:14:27.967Z,99736.94
2023-01-03T08:16:57.111Z,99733.84
2023-01-03T08:19:26.285Z,99728.00
2023-01-03T08:21:54.768Z,99721.34
2023-01-03T08:24:23.064Z,99720.13
2023-01-03T08:26:51.408Z,99720.41
2023-01-03T08:29:19.770Z,99727.31
2023-01-03T08:31:55.615Z,99722.22
2023-01-03T08:34:30.089Z,99714.56
2023-01-03T08:37:03.540Z,99711.53
2023-01-03T08:39:38.592Z,99717.69
2023-01-03T08:42:10.595Z,99723.06
2023-01-03T08:44:40.191Z,99717.69
2023-01-03T08:47:10.761Z,99716.16
2023-01-03T08:49:40.426Z,99720.75
2023-01-03T08:52:09.378Z,99718.22
2023-01-03T08:54:38.055Z,99720.03
2023-01-03T08:57:06.742Z,99717.50
2023-01-03T08:59:35.113Z,99723.41
2023-01-03T09:02:03.961Z,99718.59
2023-01-03T09:04:32.524Z,99718.84
2023-01-03T09:07:00.867Z,99712.72
2023-01-03T09:09:29.157Z,99716.59
2023-01-03T09:11:57.440Z,99714.56
2023-01-03T09:14:25.754Z,99722.25
2023-01-03T09:16:54.101Z,99715.63
2023-01-03T09:19:22.491Z,99712.56
2023-01-03T09:21:50.800Z,99715.91
2023-01-03T09:24:19.158Z,99718.72
2023-01-03T09:26:53.976Z,99718.22
2023-01-03T09:29:23.083Z,99714.41
2023-01-03T09:31:51.937Z,99716.19
2023-01-03T09:34:20.795Z,99716.44
2023-01-03T09:36:49.221Z,99715.44
2023-01-03T09:39:17.588Z,99718.53
2023-01-03T09:41:46.005Z,99714.19
2023-01-03T09:44:17.319Z,99722.38
2023-01-03T09:46:46.394Z,99725.47
2023-01-03T09:49:15.621Z,99726.50
2023-01-03T09:52:06.175Z,99725.22
2023-01-03T09:54:58.077Z,99731.09
2023-01-03T09:57:50.629Z,99735.47
2023-01-03T10:00:40.781Z,99741.09
2023-01-03T10:03:51.041Z,99743.41
2023-01-03T10:06:43.301Z,99753.41
2023-01-03T10:09:53.137Z,99757.47
2023-01-03T10:12:24.418Z,99766.69
2023-01-03T10:15:38.359Z,99763.38
2023-01-03T10:18:34.584Z,99773.63
2023-01-03T10:21:10.438Z,99768.22
2023-01-03T10:23:39.150Z,99771.78
2023-01-03T10:26:13.271Z,99771.78
2023-01-03T10:28:49.287Z,99783.78
2023-01-03T10:31:52.155Z,99779.72
2023-01-03T10:34:20.457Z,99787.63
2023-01-03T10:36:48.932Z,99778.69
2023-01-03T10:39:30.189Z,99783.75
2023-01-03T10:42:01.988Z,99795.75
2023-01-03T10:44:33.372Z,99797.28
2023-01-03T10:47:16.928Z,99799.31
2023-01-03T10:49:48.633Z,99799.56
2023-01-03T10:52:20.808Z,99803.13
2023-01-03T10:54:52.784Z,99802.09
2023-01-03T10:57:49.934Z,99819.69
2023-01-03T11:00:36.765Z,99819.91
2023-01-03T11:03:13.217Z,99821.44
2023-01-03T11:05:44.721Z,99824.47
2023-01-03T11:08:25.199Z,99825.50
2023-01-03T11:10:58.131Z,99832.88
2023-01-03T11:13:37.057Z,99833.88
2023-01-03T11:16:15.468Z,99834.09
2023-01-03T11:18:45.311Z,99837.41
2023-01-03T11:21:40.571Z,99844.53
2023-01-03T11:24:30.218Z,99838.41
2023-01-03T11:27:43.365Z,99843.75
2023-01-03T11:30:17.710Z,99852.41
2023-01-03T11:32:59.213Z,99852.66
2023-01-03T11:35:36.128Z,99851.63
2023-01-03T11:38:34.866Z,99851.06
2023-01-03T11:41:40.701Z,99862.78
2023-01-03T11:44:46.055Z,99866.09
2023-01-03T11:47:20.078Z,99876.78
2023-01-03T11:50:26.877Z,99874.47
2023-01-03T11:53:29.894Z,99879.56
2023-01-03T11:56:01.012Z,99881.31
2023-01-03T11:58:58.280Z,99890.25
2023-01-03T12:01:26.655Z,99898.84
2023-01-03T12:04:12.996Z,99899.34
2023-01-03T12:07:29.083Z,99897.06
2023-01-03T12:10:41.979Z,99907.19
2023-01-03T12:13:29.390Z,99903.88
2023-01-03T12:16:04.511Z,99905.13
2023-01-03T12:19:09.954Z,99914.81
2023-01-03T12:21:45.275Z,99914.53
2023-01-03T12:24:22.405Z,99923.19
2023-01-03T12:26:58.076Z,99919.34
2023-01-03T12:29:32.748Z,99925.16
2023-01-03T12:32:09.907Z,99934.06
2023-01-03T12:34:51.006Z,99937.09
2023-01-03T12:37:24.528Z,99938.88
2023-01-03T12:40:02.674Z,99939.06
2023-01-03T12:42:30.948Z,99947.69
2023-01-03T12:45:23.463Z,99957.88
2023-01-03T12:48:14.306Z,99953.75
2023-01-03T12:50:53.503Z,99967.72
2023-01-03T12:53:46.926Z,99967.94
2023-01-03T12:56:41.825Z,99969.41
2023-01-03T12:59:12.992Z,99975.22
2023-01-03T13:01:54.725Z,99973.13
2023-01-03T13:04:40.839Z,99978.13
2023-01-03T13:07:31.601Z,99983.97
2023-01-03T13:10:13.714Z,99984.94
2023-01-03T13:12:49.677Z,99991.81
2023-01-03T13:15:18.262Z,99990.75
2023-01-03T13:17:49.904Z,99998.38
2023-01-03T13:20:33.121Z,99996.56
2023-01-03T13:23:23.166Z,99997.03
2023-01-03T13:26:06.828Z,99996.00
2023-01-03T13:28:40.058Z,99999.78
2023-01-03T13:31:20.393Z,100001.53
2023-01-03T13:34:15.142Z,100003.78
2023-01-03T13:37:08.152Z,100003.22
2023-01-03T13:39:56.155Z,100011.06
2023-01-03T13:42:37.486Z,100011.25
2023-01-03T13:45:20.842Z,100011.16
2023-01-03T13:47:55.439Z,100021.31
2023-01-03T13:50:34.599Z,100028.09
2023-01-03T13:53:05.568Z,100033.91
2023-01-03T13:55:40.810Z,100029.00
2023-01-03T13:58:41.751Z,100032.47
2023-01-03T14:01:32.358Z,100033.59
2023-01-03T14:04:06.750Z,100046.53
2023-01-03T14:07:12.150Z,100048.00
2023-01-03T14:10:11.379Z,100044.34
2023-01-03T14:12:57.516Z,100045.78
2023-01-03T14:15:27.351Z,100040.88
2023-01-03T14:18:00.204Z,100048.69
2023-01-03T14:20:33.249Z,100054.47
2023-01-03T14:23:31.755Z,100056.69
2023-01-03T14:26:04.632Z,100060.16
2023-01-03T14:28:35.223Z,100062.69
2023-01-03T14:31:16.736Z,100063.66
2023-01-03T14:33:59.867Z,100054.97
2023-01-03T14:36:29.512Z,100069.91
2023-01-03T14:39:01.152Z,100068.06
2023-01-03T14:41:34.080Z,100061.13
2023-01-03T14:44:07.979Z,100067.66
2023-01-03T14:46:37.464Z,100070.94
2023-01-03T14:49:17.624Z,100071.91
2023-01-03T14:51:46.026Z,100075.19
2023-01-03T14:54:20.467Z,100076.91
2023-01-03T14:56:50.142Z,100077.84
2023-01-03T14:59:23.232Z,100083.16
2023-01-03T15:01:52.876Z,100087.69
2023-01-03T15:04:21.323Z,100084.56
2023-01-03T15:07:12.749Z,100073.56
2023-01-03T15:09:41.652Z,100076.84
2023-01-03T15:12:10.080Z,100067.88
2023-01-03T15:14:40.243Z,100075.97
2023-01-03T15:17:17.313Z,100074.16
2023-01-03T15:19:56.825Z,100071.53
2023-01-03T15:22:40.064Z,100073.25
2023-01-03T15:25:19.402Z,100070.66
2023-01-03T15:27:51.212Z,100071.59
2023-01-03T15:30:27.477Z,100067.72
2023-01-03T15:33:06.484Z,100068.69
2023-01-03T15:35:44.655Z,100069.16
2023-01-03T15:38:32.557Z,100063.28
2023-01-03T15:41:02.113Z,100068.88
2023-01-03T15:43:39.210Z,100073.41
2023-01-03T15:46:15.791Z,100071.06
2023-01-03T15:48:54.555Z,100065.19
2023-01-03T15:51:23.018Z,100066.94
2023-01-03T15:53:51.662Z,100067.41
2023-01-03T15:56:23.572Z,100069.59
2023-01-03T15:58:55.995Z,100070.56
2023-01-03T16:01:25.985Z,100069.00
2023-01-03T16:03:55.431Z,100070.72
2023-01-03T16:06:24.543Z,100071.19
2023-01-03T16:08:53.809Z,100075.22
2023-01-03T16:11:33.846Z,100076.94
2023-01-03T16:14:05.818Z,100070.31
2023-01-03T16:16:39.152Z,100070.00
2023-01-03T16:19:08.897Z,100072.03
2023-01-03T16:21:37.279Z,100068.91
2023-01-03T16:24:05.934Z,100071.41
2023-01-03T16:26:34.236Z,100069.56
2023-01-03T16:29:02.543Z,100071.28
2023-01-03T16:31:36.025Z,100072.25
2023-01-03T16:34:06.861Z,100075.94
2023-01-03T16:36:41.823Z,100070.53
2023-01-03T16:39:15.656Z,100071.78
2023-01-03T16:41:45.199Z,100070.72
2023-01-03T16:44:13.499Z,100076.47
2023-01-03T16:46:41.956Z,100071.38
2023-01-03T16:49:12.168Z,100073.56
2023-01-03T16:51:48.918Z,100061.03
2023-01-03T16:54:20.544Z,100062.75
2023-01-03T16:56:48.895Z,100065.69
2023-01-03T16:59:22.536Z,100064.31
2023-01-03T17:01:51.974Z,100068.84
2023-01-03T17:04:20.423Z,100065.44
2023-01-03T17:06:48.784Z,100065.91
2023-01-03T17:09:22.048Z,100070.88
2023-01-03T17:11:50.677Z,100067.03
2023-01-03T17:14:22.121Z,100072.31
2023-01-03T17:16:51.448Z,100070.75
2023-01-03T17:22:18.314Z,100073.72
2023-01-03T17:24:47.544Z,100074.50
2023-01-03T17:27:23.890Z,100066.56
2023-01-03T17:30:01.662Z,100062.25
2023-01-03T17:32:31.031Z,100057.13
2023-01-03T17:34:59.464Z,100062.72
2023-01-03T17:37:28.114Z,100061.63
2023-01-03T17:39:58.971Z,100063.66
2023-01-03T17:42:29.773Z,100063.34
2023-01-03T17:45:16.381Z,100070.16
2023-01-03T17:48:03.475Z,100065.06
2023-01-03T17:50:33.350Z,100061.16
2023-01-03T17:53:04.625Z,100070.00
2023-01-03T17:55:32.998Z,100064.13
2023-01-03T17:58:05.753Z,100063.06
2023-01-03T18:00:35.806Z,100060.72
2023-01-03T18:03:04.445Z,100065.53
2023-01-03T18:05:33.371Z,100058.88
2023-01-03T18:08:02.915Z,100057.66
2023-01-03T18:10:46.788Z,100054.09
2023-01-03T18:13:32.164Z,100058.13
2023-01-03T18:16:00.633Z,100052.69
2023-01-03T18:18:30.245Z,100049.44
2023-01-03T18:20:59.028Z,100042.31
2023-01-03T18:23:31.869Z,100042.78
2023-01-03T18:26:04.702Z,100045.56
2023-01-03T18:28:33.600Z,100046.81
2023-01-03T18:31:01.924Z,100039.69
2023-01-03T18:33:30.370Z,100031.03
2023-01-03T18:35:58.818Z,100031.97
2023-01-03T18:38:30.969Z,100031.19
2023-01-03T18:41:04.989Z,100032.91
2023-01-03T18:43:35.301Z,100033.38
2023-01-03T18:46:05.669Z,100031.06
2023-01-03T18:48:34.058Z,100026.41
2023-01-03T18:51:02.397Z,100029.22
2023-01-03T18:53:33.348Z,100028.13
2023-01-03T18:56:03.373Z,100033.41
2023-01-03T18:58:33.478Z,100025.97
2023-01-03T19:01:02.372Z,100030.00
2023-01-03T19:03:33.745Z,100018.53
2023-01-03T19:06:03.393Z,100023.03
2023-01-03T19:08:35.065Z,100015.13
2023-01-03T19:11:15.816Z,100009.25
2023-01-03T19:13:51.447Z,100010.50
2023-01-03T19:16:26.029Z,100009.91
2023-01-03T19:18:55.323Z,100004.03
2023-01-03T19:21:24.854Z,100011.28
2023-01-03T19:24:20.441Z,100006.66
2023-01-03T19:26:55.725Z,100011.63
2023-01-03T19:29:27.634Z,100007.75
2023-01-03T19:31:58.566Z,99999.06
2023-01-03T19:34:28.609Z,100003.88
2023-01-03T19:36:57.024Z,99998.47
2023-01-03T19:39:27.280Z,99998.94
2023-01-03T19:42:19.067Z,99988.25
2023-01-03T19:44:48.034Z,99989.97
2023-01-03T19:47:19.185Z,99990.09
2023-01-03T19:49:49.918Z,99987.78
2023-01-03T19:52:18.899Z,99984.38
2023-01-03T19:54:47.356Z,99977.28
2023-01-03T19:57:33.061Z,99984.53
2023-01-03T20:00:04.567Z,99976.66
2023-01-03T20:02:41.806Z,99978.31
2023-01-03T20:05:19.591Z,99974.47
2023-01-03T20:07:49.371Z,99977.72
2023-01-03T20:10:25.705Z,99978.19
2023-01-03T20:12:56.377Z,99974.00
2023-01-03T20:15:28.050Z,99969.38
2023-01-03T20:17:57.053Z,99976.34
2023-01-03T20:20:30.269Z,99968.16
2023-01-03T20:23:08.348Z,99963.19
2023-01-03T20:25:38.043Z,99963.31
2023-01-03T20:28:07.585Z,99960.41
2023-01-03T20:30:36.162Z,99969.34
2023-01-03T20:33:04.558Z,99968.72
2023-01-03T20:38:28.154Z,99968.72
2023-01-03T20:40:57.552Z,99960.97
2023-01-03T20:43:26.319Z,99965.91
2023-01-03T20:45:59.093Z,99965.28
2023-01-03T20:48:27.420Z,99961.09
2023-01-03T20:50:56.130Z,99973.88
2023-01-03T20:53:28.201Z,99967.72
2023-01-03T20:55:56.566Z,99973.38
2023-01-03T20:58:26.180Z,99970.75
2023-01-03T21:01:04.123Z,99968.88
2023-01-03T21:03:34.416Z,99974.59
2023-01-03T21:06:03.826Z,99970.41
2023-01-03T21:08:50.470Z,99976.13
2023-01-03T21:11:18.765Z,99974.25
2023-01-03T21:13:47.212Z,99967.72
2023-01-03T21:16:47.474Z,99967.41
2023-01-03T21:19:24.272Z,99973.09
2023-01-03T21:21:55.081Z,99977.13
2023-01-03T21:24:25.507Z,99979.56
2023-01-03T21:26:54.069Z,99981.72
2023-01-03T21:29:22.937Z,99977.84
2023-01-03T21:31:51.372Z,99964.09
2023-01-03T21:34:21.700Z,99974.91
2023-01-03T21:36:50.084Z,99969.03
2023-01-03T21:39:18.538Z,99977.03
2023-01-03T21:42:05.402Z,99971.19
2023-01-03T21:44:33.693Z,99971.59
2023-01-03T21:47:02.064Z,99981.63
2023-01-03T21:49:30.455Z,99981.28
2023-01-03T21:51:58.725Z,99989.31
2023-01-03T21:54:27.107Z,99991.75
2023-01-03T21:56:55.381Z,99980.78
2023-01-03T21:59:23.748Z,99982.47
2023-01-03T22:02:10.465Z,99988.16
2023-01-03T22:04:38.962Z,99973.19
2023-01-03T22:07:07.788Z,99974.09
2023-01-03T22:09:54.396Z,99978.97
2023-01-03T22:12:22.816Z,99976.31
2023-01-03T22:14:51.143Z,99979.22
2023-01-03T22:17:19.505Z,99978.91
2023-01-03T22:19:47.949Z,99972.25
2023-01-03T22:22:16.292Z,99977.94
2023-01-03T22:24:44.748Z,99980.41
2023-01-03T22:27:13.251Z,99979.31
2023-01-03T22:29:41.537Z,99977.75
2023-01-03T22:32:10.466Z,99977.44
2023-01-03T22:34:39.887Z,99982.22
2023-01-03T22:37:08.307Z,99985.44
2023-01-03T22:39:36.603Z,99990.63
2023-01-03T22:42:05.024Z,99995.41
2023-01-03T22:44:33.322Z,99992.31
2023-01-03T22:47:01.658Z,99999.09
2023-01-03T22:49:29.919Z,99995.97
2023-01-03T22:51:58.248Z,99997.97
2023-01-03T22:54:26.593Z,100000.75
2023-01-03T22:56:57.730Z,100007.09
2023-01-03T22:59:26.094Z,100001.53
2023-01-03T23:01:54.452Z,100008.19
2023-01-03T23:04:24.179Z,100010.50
2023-01-03T23:06:52.643Z,100014.38
2023-01-03T23:09:21.836Z,100017.06
2023-01-03T23:12:09.018Z,100020.91
2023-01-03T23:14:37.506Z,100025.13
2023-01-03T23:17:24.258Z,100025.75
2023-01-03T23:19:52.577Z,100030.41
2023-01-03T23:22:20.888Z,100030.72
2023-01-03T23:24:49.212Z,100040.91
2023-01-03T23:27:17.585Z,100039.25
2023-01-03T23:29:46.300Z,100034.84
2023-01-03T23:32:14.595Z,100036.72
2023-01-03T23:34:42.900Z,100045.38
2023-01-03T23:37:11.203Z,100033.03
2023-01-03T23:39:39.859Z,100040.47
2023-01-03T23:42:08.137Z,100045.09
2023-01-03T23:44:36.472Z,100056.06
2023-01-03T23:47:11.079Z,100059.94
2023-01-03T23:49:39.849Z,100057.03
2023-01-03T23:52:08.579Z,100061.69
2023-01-03T23:54:36.840Z,100060.81
2023-01-03T23:57:06.278Z,100057.91
2023-01-03T23:59:34.624Z,100064.88
